createdAt,value
2019-02-07T00:01:15.767Z,44.48
2019-02-07T00:03:44.983Z,40.48
2019-02-07T00:06:14.014Z,34.05
2019-02-07T00:08:43.035Z,37.38
2019-02-07T00:11:12.376Z,47.20
2019-02-07T00:13:41.519Z,25.00
2019-02-07T00:16:10.781Z,31.42
2019-02-07T00:18:40.455Z,37.48
2019-02-07T00:21:09.528Z,29.90
2019-02-07T00:23:38.451Z,31.95
2019-02-07T00:26:07.403Z,34.60
2019-02-07T00:28:36.360Z,38.92
2019-02-07T00:31:05.286Z,34.05
2019-02-07T00:33:34.550Z,38.33
2019-02-07T00:36:03.469Z,37.03
2019-02-07T00:38:32.313Z,34.20
2019-02-07T00:41:01.172Z,36.93
2019-02-07T00:43:29.965Z,34.65
2019-02-07T00:45:59.316Z,36.33
2019-02-07T00:48:29.310Z,32.95
2019-02-07T00:50:58.466Z,35.60
2019-02-07T00:53:27.594Z,38.28
2019-02-07T00:55:56.951Z,31.30
2019-02-07T00:58:25.827Z,36.30
2019-02-07T01:00:54.946Z,35.00
2019-02-07T01:03:24.314Z,36.00
2019-02-07T01:05:53.403Z,32.33
2019-02-07T01:08:22.661Z,36.60
2019-02-07T01:10:52.150Z,33.18
2019-02-07T01:13:20.930Z,39.95
2019-02-07T01:15:49.779Z,35.90
2019-02-07T01:18:18.929Z,32.30
2019-02-07T01:20:47.775Z,41.08
2019-02-07T01:23:17.191Z,37.53
2019-02-07T01:25:46.063Z,38.42
2019-02-07T01:28:14.946Z,37.53
2019-02-07T01:30:44.420Z,47.90
2019-02-07T01:33:13.551Z,33.67
2019-02-07T01:35:42.411Z,34.23
2019-02-07T01:38:11.267Z,38.63
2019-02-07T01:40:40.271Z,33.55
2019-02-07T01:43:09.124Z,32.58
2019-02-07T01:45:44.797Z,29.80
2019-02-07T01:48:14.314Z,31.00
2019-02-07T01:50:43.295Z,31.30
2019-02-07T01:53:12.372Z,31.15
2019-02-07T01:55:41.399Z,44.25
2019-02-07T01:58:10.471Z,32.58
2019-02-07T02:00:39.424Z,37.40
2019-02-07T02:03:08.689Z,29.32
2019-02-07T02:05:37.544Z,32.98
2019-02-07T02:08:06.401Z,42.23
2019-02-07T02:10:35.358Z,28.57
2019-02-07T02:13:04.500Z,29.10
2019-02-07T02:15:33.427Z,31.65
2019-02-07T02:18:02.556Z,37.15
2019-02-07T02:20:31.541Z,39.98
2019-02-07T02:23:00.623Z,38.83
2019-02-07T02:25:29.643Z,44.93
2019-02-07T02:27:58.716Z,39.00
2019-02-07T02:30:30.158Z,40.08
2019-02-07T02:32:59.481Z,37.13
2019-02-07T02:35:28.534Z,35.00
2019-02-07T02:37:57.429Z,36.58
2019-02-07T02:40:26.574Z,34.75
2019-02-07T02:42:55.696Z,33.45
2019-02-07T02:45:36.602Z,29.92
2019-02-07T02:47:56.552Z,35.50
2019-02-07T02:50:25.509Z,32.38
2019-02-07T02:52:54.449Z,28.83
2019-02-07T02:55:30.766Z,38.17
2019-02-07T02:57:59.866Z,46.65
2019-02-07T03:00:48.976Z,34.18
2019-02-07T03:03:22.428Z,33.05
2019-02-07T03:06:19.153Z,31.85
2019-02-07T03:08:55.684Z,32.78
2019-02-07T03:11:43.739Z,32.83
2019-02-07T03:14:37.528Z,41.02
2019-02-07T03:17:37.423Z,42.50
2019-02-07T03:20:14.208Z,31.37
2019-02-07T03:23:01.037Z,37.48
2019-02-07T03:25:40.119Z,37.63
2019-02-07T03:28:21.646Z,32.28
2019-02-07T03:31:08.482Z,32.60
2019-02-07T03:33:59.519Z,28.50
2019-02-07T03:36:44.901Z,33.58
2019-02-07T03:39:19.898Z,30.77
2019-02-07T03:42:07.943Z,35.80
2019-02-07T03:44:55.997Z,30.32
2019-02-07T03:47:34.243Z,30.05
2019-02-07T03:50:25.626Z,32.15
2019-02-07T03:53:21.726Z,30.65
2019-02-07T03:56:10.398Z,34.20
2019-02-07T03:58:56.407Z,24.98
2019-02-07T04:01:46.506Z,33.70
2019-02-07T04:04:29.695Z,32.60
2019-02-07T04:07:16.367Z,31.15
2019-02-07T04:10:01.850Z,33.13
2019-02-07T04:12:48.767Z,35.23
2019-02-07T04:15:27.692Z,29.70
2019-02-07T04:18:11.073Z,35.73
2019-02-07T04:20:57.417Z,32.38
2019-02-07T04:23:45.511Z,43.58
2019-02-07T04:26:35.388Z,33.38
2019-02-07T04:29:32.584Z,29.40
2019-02-07T04:32:20.244Z,24.60
2019-02-07T04:35:11.383Z,27.40
2019-02-07T04:38:00.635Z,35.48
2019-02-07T04:40:49.444Z,30.82
2019-02-07T04:43:36.346Z,34.58
2019-02-07T04:46:27.221Z,28.47
2019-02-07T04:49:11.482Z,32.75
2019-02-07T04:52:11.603Z,31.30
2019-02-07T04:55:08.847Z,32.55
2019-02-07T04:58:15.392Z,35.00
2019-02-07T05:01:09.180Z,30.80
2019-02-07T05:04:06.061Z,34.98
2019-02-07T05:06:46.018Z,31.25
2019-02-07T05:09:34.568Z,29.85
2019-02-07T05:12:16.062Z,33.58
2019-02-07T05:15:00.431Z,31.20
2019-02-07T05:17:54.302Z,30.15
2019-02-07T05:20:48.183Z,31.30
2019-02-07T05:23:38.946Z,21.52
2019-02-07T05:26:20.247Z,31.85
2019-02-07T05:29:06.872Z,24.80
2019-02-07T05:32:07.110Z,32.95
2019-02-07T05:34:50.450Z,29.12
2019-02-07T05:37:34.680Z,23.77
2019-02-07T05:40:17.088Z,25.82
2019-02-07T05:42:54.770Z,33.65
2019-02-07T05:45:39.997Z,30.12
2019-02-07T05:48:31.200Z,31.75
2019-02-07T05:51:17.438Z,28.80
2019-02-07T05:54:17.465Z,40.30
2019-02-07T05:57:11.512Z,27.58
2019-02-07T05:59:58.194Z,24.52
2019-02-07T06:02:39.306Z,39.63
2019-02-07T06:05:30.545Z,26.80
2019-02-07T06:08:16.997Z,27.95
2019-02-07T06:10:56.924Z,28.42
2019-02-07T06:13:51.515Z,40.15
2019-02-07T06:16:42.611Z,35.60
2019-02-07T06:19:45.761Z,35.48
2019-02-07T06:22:31.320Z,33.10
2019-02-07T06:25:24.389Z,32.13
2019-02-07T06:28:18.631Z,28.47
2019-02-07T06:31:06.854Z,31.42
2019-02-07T06:33:56.546Z,29.95
2019-02-07T06:36:42.379Z,32.25
2019-02-07T06:39:30.940Z,35.20
2019-02-07T06:42:18.190Z,30.97
2019-02-07T06:45:18.387Z,34.35
2019-02-07T06:48:12.055Z,33.00
2019-02-07T06:51:03.185Z,30.08
2019-02-07T06:53:49.980Z,33.30
2019-02-07T06:56:38.156Z,36.63
2019-02-07T06:59:29.265Z,30.57
2019-02-07T07:02:15.922Z,26.80
2019-02-07T07:05:02.551Z,29.23
2019-02-07T07:07:52.423Z,31.57
2019-02-07T07:10:36.800Z,35.50
2019-02-07T07:13:23.304Z,26.93
2019-02-07T07:16:14.472Z,30.30
2019-02-07T07:19:12.491Z,25.97
2019-02-07T07:21:59.299Z,32.38
2019-02-07T07:24:54.520Z,29.40
2019-02-07T07:27:51.617Z,36.15
2019-02-07T07:30:31.829Z,30.43
2019-02-07T07:33:22.759Z,37.80
2019-02-07T07:36:19.917Z,31.60
2019-02-07T07:39:06.251Z,28.77
2019-02-07T07:41:52.219Z,35.05
2019-02-07T07:44:40.560Z,30.45
2019-02-07T07:47:35.652Z,42.25
2019-02-07T07:50:31.702Z,28.92
2019-02-07T07:53:17.998Z,32.67
2019-02-07T07:56:04.981Z,34.18
2019-02-07T07:58:43.633Z,28.05
2019-02-07T08:01:27.756Z,42.00
2019-02-07T08:04:14.788Z,25.80
2019-02-07T08:06:57.142Z,33.38
2019-02-07T08:09:57.265Z,34.33
2019-02-07T08:12:39.441Z,29.48
2019-02-07T08:15:21.675Z,36.95
2019-02-07T08:18:24.989Z,35.60
2019-02-07T08:21:11.515Z,30.15
2019-02-07T08:23:56.147Z,33.55
2019-02-07T08:26:53.316Z,26.65
2019-02-07T08:29:34.703Z,30.65
2019-02-07T08:32:15.693Z,33.70
2019-02-07T08:34:57.033Z,30.02
2019-02-07T08:37:35.111Z,27.27
2019-02-07T08:40:27.405Z,38.48
2019-02-07T08:43:13.818Z,36.30
2019-02-07T08:46:20.034Z,40.28
2019-02-07T08:49:09.651Z,38.78
2019-02-07T08:51:51.929Z,40.25
2019-02-07T08:54:51.875Z,38.85
2019-02-07T08:57:45.611Z,29.32
2019-02-07T09:00:29.497Z,39.30
2019-02-07T09:03:16.237Z,36.80
2019-02-07T09:05:57.470Z,27.65
2019-02-07T09:08:44.092Z,38.80
2019-02-07T09:11:30.447Z,27.67
2019-02-07T09:14:24.677Z,37.90
2019-02-07T09:17:17.738Z,30.00
2019-02-07T09:19:59.167Z,37.67
2019-02-07T09:22:53.378Z,22.80
2019-02-07T09:25:50.187Z,28.55
2019-02-07T09:28:47.151Z,39.20
2019-02-07T09:31:33.549Z,40.67
2019-02-07T09:34:17.793Z,28.42
2019-02-07T09:37:04.420Z,24.90
2019-02-07T09:39:46.164Z,37.95
2019-02-07T09:42:34.651Z,20.10
2019-02-07T09:45:21.997Z,42.48
2019-02-07T09:48:04.556Z,25.60
2019-02-07T09:50:42.547Z,37.17
2019-02-07T09:53:24.057Z,34.25
2019-02-07T09:56:03.753Z,30.25
2019-02-07T09:58:44.365Z,35.45
2019-02-07T10:01:19.948Z,38.08
2019-02-07T10:04:05.752Z,31.15
2019-02-07T10:07:05.857Z,32.53
2019-02-07T10:09:46.380Z,36.65
2019-02-07T10:12:43.816Z,31.12
2019-02-07T10:15:32.120Z,35.43
2019-02-07T10:18:18.561Z,33.05
2019-02-07T10:21:05.152Z,33.53
2019-02-07T10:24:02.409Z,29.92
2019-02-07T10:26:56.130Z,39.20
2019-02-07T10:29:49.895Z,35.52
2019-02-07T10:32:36.438Z,33.30
2019-02-07T10:35:22.839Z,26.95
2019-02-07T10:38:10.224Z,37.20
2019-02-07T10:40:56.448Z,45.33
2019-02-07T10:43:42.916Z,45.98
2019-02-07T10:46:28.138Z,35.85
2019-02-07T10:49:17.852Z,41.88
2019-02-07T10:52:14.756Z,30.05
2019-02-07T10:55:09.141Z,39.45
2019-02-07T10:57:56.116Z,34.75
2019-02-07T11:00:50.631Z,34.58
2019-02-07T11:03:37.311Z,35.00
2019-02-07T11:06:31.522Z,39.38
2019-02-07T11:09:34.432Z,34.45
2019-02-07T11:12:19.832Z,35.03
2019-02-07T11:15:06.543Z,37.48
2019-02-07T11:17:47.497Z,33.08
2019-02-07T11:20:42.695Z,38.10
2019-02-07T11:23:32.552Z,39.75
2019-02-07T11:26:35.566Z,30.65
2019-02-07T11:29:22.227Z,34.20
2019-02-07T11:32:15.451Z,29.40
2019-02-07T11:35:01.681Z,32.73
2019-02-07T11:37:51.226Z,40.08
2019-02-07T11:40:42.402Z,31.07
2019-02-07T11:43:18.051Z,40.78
2019-02-07T11:46:04.492Z,38.67
2019-02-07T11:48:48.526Z,40.03
2019-02-07T11:51:27.665Z,34.73
2019-02-07T11:54:18.334Z,37.08
2019-02-07T11:57:04.707Z,34.20
2019-02-07T12:00:01.860Z,35.63
2019-02-07T12:02:52.796Z,38.20
2019-02-07T12:05:39.163Z,31.10
2019-02-07T12:08:36.367Z,39.78
2019-02-07T12:11:24.965Z,32.85
2019-02-07T12:14:19.323Z,28.30
2019-02-07T12:17:03.684Z,23.90
2019-02-07T12:19:57.747Z,33.92
2019-02-07T12:22:37.400Z,38.13
2019-02-07T12:25:40.819Z,33.85
2019-02-07T12:28:27.619Z,40.20
2019-02-07T12:31:15.822Z,28.57
2019-02-07T12:34:06.036Z,30.50
2019-02-07T12:36:44.808Z,31.65
2019-02-07T12:39:21.931Z,42.17
2019-02-07T12:42:08.825Z,32.50
2019-02-07T12:44:49.363Z,35.52
2019-02-07T12:47:38.577Z,29.40
2019-02-07T12:50:29.876Z,25.95
2019-02-07T12:53:16.619Z,37.35
2019-02-07T12:56:08.034Z,35.58
2019-02-07T12:59:07.331Z,34.08
2019-02-07T13:02:05.591Z,43.45
2019-02-07T13:04:52.560Z,36.55
2019-02-07T13:07:41.546Z,30.52
2019-02-07T13:10:31.231Z,30.62
2019-02-07T13:13:16.266Z,39.42
2019-02-07T13:16:23.905Z,39.00
2019-02-07T13:19:18.066Z,43.35
2019-02-07T13:22:06.765Z,51.08
2019-02-07T13:24:58.007Z,40.23
2019-02-07T13:27:55.091Z,36.55
2019-02-07T13:30:42.032Z,38.08
2019-02-07T13:33:19.838Z,37.58
2019-02-07T13:36:07.751Z,35.23
2019-02-07T13:38:58.566Z,44.18
2019-02-07T13:41:45.207Z,34.43
2019-02-07T13:44:32.951Z,39.63
2019-02-07T13:47:15.656Z,42.90
2019-02-07T13:50:21.879Z,34.27
2019-02-07T13:53:15.987Z,38.88
2019-02-07T13:56:06.283Z,44.23
2019-02-07T13:58:57.302Z,46.50
2019-02-07T14:01:57.800Z,43.02
2019-02-07T14:04:38.486Z,36.93
2019-02-07T14:07:30.364Z,46.75
2019-02-07T14:10:18.327Z,34.27
2019-02-07T14:13:15.235Z,49.95
2019-02-07T14:16:09.603Z,46.23
2019-02-07T14:19:08.254Z,48.25
2019-02-07T14:21:55.236Z,44.50
2019-02-07T14:24:48.023Z,38.83
2019-02-07T14:27:34.761Z,54.50
2019-02-07T14:30:13.859Z,33.25
2019-02-07T14:33:00.561Z,46.73
2019-02-07T14:35:53.971Z,41.70
2019-02-07T14:38:45.054Z,45.73
2019-02-07T14:41:31.941Z,34.33
2019-02-07T14:44:19.459Z,30.15
2019-02-07T14:46:52.651Z,39.80
2019-02-07T14:49:21.658Z,34.65
2019-02-07T14:51:53.251Z,35.38
2019-02-07T14:54:22.509Z,35.25
2019-02-07T14:56:51.794Z,44.05
2019-02-07T14:59:20.708Z,48.55
2019-02-07T15:01:50.071Z,46.25
2019-02-07T15:04:19.078Z,46.80
2019-02-07T15:06:48.269Z,50.65
2019-02-07T15:09:21.252Z,46.18
2019-02-07T15:11:50.315Z,48.52
2019-02-07T15:14:19.268Z,45.35
2019-02-07T15:16:48.239Z,42.85
2019-02-07T15:19:17.429Z,48.25
2019-02-07T15:21:46.488Z,32.73
2019-02-07T15:24:15.332Z,40.92
2019-02-07T15:26:44.272Z,38.13
2019-02-07T15:29:16.027Z,39.63
2019-02-07T15:31:44.565Z,39.53
2019-02-07T15:34:13.774Z,42.27
2019-02-07T15:36:44.864Z,42.98
2019-02-07T15:39:15.370Z,41.65
2019-02-07T15:41:44.424Z,42.93
2019-02-07T15:44:13.487Z,30.72
2019-02-07T15:46:42.370Z,39.33
2019-02-07T15:49:11.256Z,30.08
2019-02-07T15:51:40.611Z,36.17
2019-02-07T15:54:09.998Z,37.08
2019-02-07T15:56:39.155Z,28.38
2019-02-07T15:59:45.723Z,34.60
2019-02-07T16:02:34.133Z,38.05
2019-02-07T16:05:04.863Z,39.20
2019-02-07T16:07:50.815Z,35.03
2019-02-07T16:10:20.083Z,29.70
2019-02-07T16:12:49.199Z,32.70
2019-02-07T16:15:20.081Z,39.13
2019-02-07T16:17:49.604Z,34.70
2019-02-07T16:20:19.060Z,42.40
2019-02-07T16:22:48.330Z,34.90
2019-02-07T16:25:18.028Z,26.50
2019-02-07T16:27:47.220Z,45.08
2019-02-07T16:30:16.897Z,40.67
2019-02-07T16:32:46.379Z,36.23
2019-02-07T16:35:16.851Z,38.67
2019-02-07T16:37:45.971Z,40.85
2019-02-07T16:40:15.514Z,42.95
2019-02-07T16:42:44.703Z,42.17
2019-02-07T16:45:15.461Z,41.45
2019-02-07T16:47:44.440Z,47.80
2019-02-07T16:50:15.167Z,46.73
2019-02-07T16:52:45.616Z,56.33
2019-02-07T16:55:14.551Z,35.90
2019-02-07T16:57:43.684Z,39.90
2019-02-07T17:00:16.015Z,47.40
2019-02-07T17:02:45.018Z,41.25
2019-02-07T17:05:15.475Z,49.88
2019-02-07T17:07:44.631Z,34.15
2019-02-07T17:10:15.569Z,47.88
2019-02-07T17:12:44.521Z,45.92
2019-02-07T17:15:14.865Z,44.48
2019-02-07T17:17:44.288Z,37.70
2019-02-07T17:20:18.890Z,51.08
2019-02-07T17:22:47.979Z,54.25
2019-02-07T17:25:17.103Z,42.38
2019-02-07T17:27:45.996Z,42.67
2019-02-07T17:30:16.414Z,41.42
2019-02-07T17:32:45.811Z,28.80
2019-02-07T17:35:15.972Z,42.08
2019-02-07T17:37:44.827Z,48.75
2019-02-07T17:40:15.900Z,43.33
2019-02-07T17:42:45.309Z,44.10
2019-02-07T17:45:17.608Z,39.88
2019-02-07T17:47:47.123Z,43.38
2019-02-07T17:50:19.523Z,39.53
2019-02-07T17:52:50.357Z,39.05
2019-02-07T17:55:20.080Z,33.08
2019-02-07T17:57:49.404Z,38.28
2019-02-07T18:00:26.874Z,34.63
2019-02-07T18:02:56.080Z,30.68
2019-02-07T18:05:25.135Z,26.15
2019-02-07T18:07:54.367Z,27.65
2019-02-07T18:10:23.523Z,32.53
2019-02-07T18:12:52.537Z,41.58
2019-02-07T18:15:22.162Z,33.92
2019-02-07T18:17:51.269Z,31.02
2019-02-07T18:20:20.695Z,28.70
2019-02-07T18:22:49.879Z,25.80
2019-02-07T18:25:19.079Z,36.58
2019-02-07T18:27:49.056Z,27.35
2019-02-07T18:30:18.677Z,34.18
2019-02-07T18:32:47.627Z,34.05
2019-02-07T18:35:17.088Z,17.10
2019-02-07T18:37:46.158Z,25.62
2019-02-07T18:40:20.742Z,22.65
2019-02-07T18:42:50.332Z,18.98
2019-02-07T18:45:19.927Z,24.63
2019-02-07T18:47:48.884Z,23.98
2019-02-07T18:50:26.892Z,27.07
2019-02-07T18:52:55.828Z,23.18
2019-02-07T18:55:24.748Z,23.22
2019-02-07T18:57:53.750Z,24.20
2019-02-07T19:00:25.273Z,19.62
2019-02-07T19:02:54.858Z,28.20
2019-02-07T19:05:24.371Z,26.50
2019-02-07T19:07:54.175Z,26.48
2019-02-07T19:10:23.863Z,27.35
2019-02-07T19:12:54.373Z,23.42
2019-02-07T19:15:29.183Z,23.60
2019-02-07T19:17:58.579Z,24.32
2019-02-07T19:20:27.824Z,21.15
2019-02-07T19:22:57.115Z,21.70
2019-02-07T19:25:26.403Z,24.18
2019-02-07T19:27:55.948Z,15.65
2019-02-07T19:30:29.552Z,22.05
2019-02-07T19:32:58.754Z,29.32
2019-02-07T19:35:28.021Z,21.73
2019-02-07T19:37:57.248Z,20.17
2019-02-07T19:40:26.423Z,21.95
2019-02-07T19:42:55.850Z,27.13
2019-02-07T19:45:25.000Z,23.20
2019-02-07T19:47:54.103Z,22.55
2019-02-07T19:50:24.638Z,24.47
2019-02-07T19:52:54.052Z,26.45
2019-02-07T19:55:25.207Z,19.95
2019-02-07T19:57:54.419Z,24.40
2019-02-07T20:00:25.676Z,29.95
2019-02-07T20:02:55.033Z,22.70
2019-02-07T20:05:24.636Z,24.82
2019-02-07T20:07:53.845Z,24.92
2019-02-07T20:10:24.653Z,26.37
2019-02-07T20:12:54.429Z,23.27
2019-02-07T20:15:34.419Z,21.35
2019-02-07T20:18:03.519Z,24.10
2019-02-07T20:20:32.447Z,22.17
2019-02-07T20:23:01.400Z,22.80
2019-02-07T20:25:30.591Z,25.75
2019-02-07T20:27:59.813Z,19.57
2019-02-07T20:30:30.731Z,27.45
2019-02-07T20:32:59.929Z,23.87
2019-02-07T20:35:28.905Z,18.75
2019-02-07T20:37:57.930Z,28.05
2019-02-07T20:40:27.524Z,12.70
2019-02-07T20:42:56.730Z,29.18
2019-02-07T20:45:26.279Z,22.75
2019-02-07T20:47:55.724Z,16.48
2019-02-07T20:50:25.824Z,18.40
2019-02-07T20:52:55.197Z,21.60
2019-02-07T20:55:24.147Z,30.23
2019-02-07T20:57:53.429Z,20.68
2019-02-07T21:00:25.074Z,17.35
2019-02-07T21:02:55.916Z,20.92
2019-02-07T21:05:26.532Z,29.37
2019-02-07T21:07:55.664Z,23.57
2019-02-07T21:10:25.428Z,15.38
2019-02-07T21:12:54.629Z,21.90
2019-02-07T21:15:24.104Z,20.02
2019-02-07T21:17:53.260Z,16.67
2019-02-07T21:20:24.093Z,20.80
2019-02-07T21:22:53.894Z,20.97
2019-02-07T21:25:25.208Z,12.70
2019-02-07T21:27:54.447Z,21.65
2019-02-07T21:30:26.195Z,18.12
2019-02-07T21:32:55.523Z,16.73
2019-02-07T21:35:27.702Z,20.30
2019-02-07T21:37:56.556Z,22.98
2019-02-07T21:40:27.334Z,18.23
2019-02-07T21:42:57.209Z,22.87
2019-02-07T21:45:26.244Z,16.65
2019-02-07T21:47:55.649Z,21.52
2019-02-07T21:50:25.744Z,16.27
2019-02-07T21:52:54.720Z,17.15
2019-02-07T21:55:25.508Z,19.37
2019-02-07T21:57:54.761Z,19.87
2019-02-07T22:00:32.214Z,33.88
2019-02-07T22:03:01.383Z,17.35
2019-02-07T22:05:30.672Z,16.27
2019-02-07T22:07:59.524Z,17.87
2019-02-07T22:10:29.092Z,24.90
2019-02-07T22:12:58.388Z,11.18
2019-02-07T22:15:27.971Z,21.07
2019-02-07T22:17:57.119Z,23.55
2019-02-07T22:20:26.930Z,19.15
2019-02-07T22:22:56.138Z,22.32
2019-02-07T22:25:25.320Z,16.05
2019-02-07T22:27:54.491Z,15.50
2019-02-07T22:30:28.625Z,18.15
2019-02-07T22:32:58.213Z,13.53
2019-02-07T22:35:27.387Z,20.10
2019-02-07T22:37:56.332Z,15.75
2019-02-07T22:40:25.973Z,16.65
2019-02-07T22:42:55.060Z,15.85
2019-02-07T22:45:25.010Z,19.82
2019-02-07T22:47:53.886Z,16.27
2019-02-07T22:50:24.644Z,22.05
2019-02-07T22:52:57.006Z,15.28
2019-02-07T22:55:24.591Z,14.45
2019-02-07T22:57:53.443Z,16.57
2019-02-07T23:01:09.683Z,13.70
2019-02-07T23:03:40.531Z,19.67
2019-02-07T23:06:09.975Z,15.80
2019-02-07T23:08:38.866Z,12.37
2019-02-07T23:11:08.695Z,14.80
2019-02-07T23:13:37.622Z,13.55
2019-02-07T23:16:08.402Z,11.88
2019-02-07T23:18:38.084Z,11.97
2019-02-07T23:21:07.869Z,15.53
2019-02-07T23:23:36.894Z,14.18
2019-02-07T23:26:06.922Z,8.50
2019-02-07T23:28:36.056Z,14.95
2019-02-07T23:31:06.878Z,10.15
2019-02-07T23:33:36.201Z,9.68
2019-02-07T23:36:06.512Z,12.23
2019-02-07T23:38:35.699Z,15.70
2019-02-07T23:41:06.091Z,8.63
2019-02-07T23:43:35.295Z,12.30
2019-02-07T23:46:05.580Z,27.60
2019-02-07T23:48:34.856Z,9.90
2019-02-07T23:51:04.061Z,9.48
2019-02-07T23:53:33.246Z,11.48
2019-02-07T23:56:02.096Z,9.78
2019-02-07T23:58:31.271Z,13.22
